Roach, Missouri
Current Conditions -  °F | °C
As of 2:15 AM on Thursday 29 Jan 2015 (Local Time) from KH21 Reporting Station
Clear Clear  
Wind Chill: 55°   Ceiling: Unl
Heat Index: 55°   Visibility: 10mi
Dew Point: 39°   Wind: 14mph
Humidity: 54%   Direction: 250°WSW
Pressure: 29.86"   Gusts: 17mph
Location:  37.99°N, 92.84°W
Report Text: KH21 290815Z AUTO 25012G15KT 10SM CLR 13/04 A2986 RMK AO2
Loading
Personal Weather Stations






























Interactive Weather Map New forecast layout! Learn more

10-Day Weather Forecast

Advertisements
Track Severe Weather on mobile